Time;durP1;ratioP1;P1;durP2;ratioP2;P2;SDS_P1;SDS_P2;PMS_P1;PMS_P2;Temp;Humidity;BMP_temperature;BMP_pressure;BME280_temperature;BME280_humidity;BME280_pressure;Samples;Min_cycle;Max_cycle;Signal;HPM_P1;HPM_P2
2023/12/13 00:02:05;;;;;;;2.00;0.50;;;7.80;99.90;;;;;;5067156;28;20028;-69
2023/12/13 00:04:30;;;;;;;1.52;0.63;;;7.80;99.90;;;;;;5065266;28;20731;-74
2023/12/13 00:06:56;;;;;;;5.13;0.50;;;7.80;99.90;;;;;;5059214;28;20037;-74
2023/12/13 00:09:21;;;;;;;3.40;0.50;;;7.80;99.90;;;;;;5052196;28;20028;-72
2023/12/13 00:11:47;;;;;;;2.00;0.50;;;7.70;99.90;;;;;;5064820;28;20059;-71
2023/12/13 00:14:13;;;;;;;1.63;0.45;;;7.60;99.90;;;;;;5060968;28;20033;-70
2023/12/13 00:16:38;;;;;;;2.90;0.43;;;7.60;99.90;;;;;;5047839;28;20033;-73
2023/12/13 00:19:04;;;;;;;6.72;0.65;;;7.60;99.90;;;;;;5066719;28;20031;-70
2023/12/13 00:21:30;;;;;;;2.63;0.57;;;7.60;99.90;;;;;;5060254;28;20043;-79
2023/12/13 00:23:56;;;;;;;3.33;0.75;;;7.70;99.90;;;;;;5061567;28;20028;-70
2023/12/13 00:26:24;;;;;;;1.48;0.70;;;7.70;99.90;;;;;;5064289;28;20036;-73
2023/12/13 00:28:50;;;;;;;3.65;0.70;;;7.70;99.90;;;;;;5062773;28;20668;-72
2023/12/13 00:31:16;;;;;;;3.65;0.50;;;7.70;99.90;;;;;;5067225;28;20067;-72
2023/12/13 00:33:42;;;;;;;2.03;0.60;;;7.70;99.90;;;;;;5061031;28;20104;-72
2023/12/13 00:36:08;;;;;;;1.23;0.40;;;7.70;99.90;;;;;;5062607;28;20024;-71
2023/12/13 00:38:34;;;;;;;3.65;0.60;;;7.60;99.90;;;;;;5050761;28;20037;-70
2023/12/13 00:41:00;;;;;;;5.50;0.70;;;7.60;99.90;;;;;;5048107;28;20040;-71
2023/12/13 00:43:26;;;;;;;2.80;0.60;;;7.60;99.90;;;;;;5058931;28;20043;-71
2023/12/13 00:45:52;;;;;;;3.50;0.77;;;7.60;99.90;;;;;;5047422;28;20024;-72
2023/12/13 00:48:17;;;;;;;2.28;0.70;;;7.60;99.90;;;;;;5064691;28;20575;-71
2023/12/13 00:50:43;;;;;;;4.90;1.00;;;7.50;99.90;;;;;;5070611;28;20024;-70
2023/12/13 00:53:09;;;;;;;2.85;0.60;;;7.50;99.90;;;;;;5062838;28;20025;-73
2023/12/13 00:55:35;;;;;;;2.55;0.68;;;7.50;99.90;;;;;;5063135;28;20458;-70
2023/12/13 00:58:00;;;;;;;4.13;1.00;;;7.40;99.90;;;;;;5063975;28;20536;-74
2023/12/13 01:00:26;;;;;;;2.78;1.05;;;7.40;99.90;;;;;;5051864;28;20049;-74
2023/12/13 01:02:52;;;;;;;3.78;0.82;;;7.40;99.90;;;;;;5053099;28;20029;-71
2023/12/13 01:05:18;;;;;;;4.28;0.80;;;7.40;99.90;;;;;;5052836;28;20427;-71
2023/12/13 01:07:44;;;;;;;1.60;0.68;;;7.30;99.90;;;;;;5054168;28;20033;-70
2023/12/13 01:10:10;;;;;;;3.28;0.90;;;7.30;99.90;;;;;;5054607;28;20037;-71
2023/12/13 01:12:35;;;;;;;4.03;0.60;;;7.20;99.90;;;;;;5062478;28;20808;-71
2023/12/13 01:15:01;;;;;;;1.38;0.70;;;7.20;99.90;;;;;;5037390;28;20048;-75
2023/12/13 01:17:27;;;;;;;3.17;0.95;;;7.20;99.90;;;;;;5063660;28;20119;-71
2023/12/13 01:19:52;;;;;;;4.97;1.00;;;7.10;99.90;;;;;;5050191;28;20115;-70
2023/12/13 01:22:21;;;;;;;3.55;1.17;;;7.10;99.90;;;;;;5051322;28;20029;-71
2023/12/13 01:24:47;;;;;;;5.35;0.88;;;7.00;99.90;;;;;;5068734;28;20056;-71
2023/12/13 01:27:13;;;;;;;1.80;0.82;;;7.00;99.90;;;;;;5061311;28;20056;-70
2023/12/13 01:29:38;;;;;;;3.33;0.73;;;7.00;99.90;;;;;;5054548;28;20483;-72
2023/12/13 01:32:04;;;;;;;2.75;0.70;;;7.00;99.90;;;;;;5062681;28;20512;-70
2023/12/13 01:34:30;;;;;;;1.80;0.80;;;7.00;99.90;;;;;;5070337;28;20033;-71
2023/12/13 01:36:56;;;;;;;1.98;0.80;;;6.90;99.90;;;;;;5069070;28;20080;-72
2023/12/13 01:39:21;;;;;;;2.85;0.73;;;6.90;99.90;;;;;;5056868;28;20106;-73
2023/12/13 01:41:47;;;;;;;3.88;1.17;;;6.90;99.90;;;;;;5053102;28;20028;-71
2023/12/13 01:44:12;;;;;;;3.47;1.00;;;6.90;99.90;;;;;;5070490;28;20036;-70
2023/12/13 01:46:40;;;;;;;4.10;1.00;;;6.80;99.90;;;;;;5069687;28;20145;-70
2023/12/13 01:49:07;;;;;;;3.30;1.05;;;6.70;99.90;;;;;;5054621;28;20033;-75
2023/12/13 01:51:34;;;;;;;2.55;0.80;;;6.70;99.90;;;;;;5056584;28;20070;-80
2023/12/13 01:54:04;;;;;;;1.70;0.65;;;6.80;99.90;;;;;;5066407;28;20085;-70
2023/12/13 01:56:30;;;;;;;1.83;0.55;;;6.80;99.90;;;;;;5050644;28;20060;-72
2023/12/13 01:58:56;;;;;;;5.55;1.00;;;6.80;99.90;;;;;;5066593;28;20072;-71
2023/12/13 02:01:21;;;;;;;1.85;1.00;;;6.80;99.90;;;;;;5066960;28;20036;-73
2023/12/13 02:03:47;;;;;;;2.35;0.90;;;6.80;99.90;;;;;;5058406;28;20047;-71
2023/12/13 02:06:12;;;;;;;6.28;1.15;;;6.70;99.90;;;;;;5070125;28;20024;-70
2023/12/13 02:08:38;;;;;;;1.73;1.00;;;6.70;99.90;;;;;;5060655;28;20155;-72
2023/12/13 02:11:04;;;;;;;3.45;1.00;;;6.70;99.90;;;;;;5059864;28;20135;-70
2023/12/13 02:13:30;;;;;;;2.38;0.90;;;6.70;99.90;;;;;;5060401;28;20037;-70
2023/12/13 02:15:56;;;;;;;4.45;0.70;;;6.70;99.90;;;;;;5056262;28;20024;-70
2023/12/13 02:18:22;;;;;;;3.83;0.88;;;6.60;99.90;;;;;;5062521;28;20048;-74
2023/12/13 02:20:50;;;;;;;4.28;0.98;;;6.70;99.90;;;;;;5067514;28;20031;-70
2023/12/13 02:23:15;;;;;;;2.22;0.63;;;6.60;99.90;;;;;;5062175;28;20033;-72
2023/12/13 02:25:57;;;;;;;3.50;0.65;;;6.60;99.90;;;;;;5061213;28;20079;-72
2023/12/13 02:28:27;;;;;;;3.15;0.57;;;6.60;99.90;;;;;;5069618;28;20482;-70
2023/12/13 02:30:55;;;;;;;5.05;0.70;;;6.60;99.90;;;;;;5051992;28;20057;-70
2023/12/13 02:33:24;;;;;;;3.35;0.55;;;6.60;99.90;;;;;;5061348;28;20111;-71
2023/12/13 02:35:54;;;;;;;1.73;0.50;;;6.50;99.90;;;;;;5050829;28;20490;-71
2023/12/13 02:38:20;;;;;;;3.40;0.75;;;6.60;99.90;;;;;;5053465;28;20828;-71
2023/12/13 02:40:46;;;;;;;3.05;0.60;;;6.60;99.90;;;;;;5062274;28;20037;-71
2023/12/13 02:43:11;;;;;;;4.30;0.60;;;6.60;99.90;;;;;;5068385;28;20074;-74
2023/12/13 02:45:37;;;;;;;6.75;0.80;;;6.60;99.90;;;;;;5058488;28;20029;-79
2023/12/13 02:48:03;;;;;;;4.13;1.00;;;6.50;99.90;;;;;;5049203;28;20036;-71
2023/12/13 02:50:29;;;;;;;3.60;0.57;;;6.50;99.90;;;;;;5060153;28;20028;-72
2023/12/13 02:52:54;;;;;;;1.55;0.52;;;6.50;99.90;;;;;;5068716;28;20032;-70
2023/12/13 02:55:20;;;;;;;3.35;0.75;;;6.60;99.90;;;;;;5060757;28;20376;-70
2023/12/13 02:57:45;;;;;;;2.42;0.50;;;6.70;99.90;;;;;;5047586;28;20857;-71
2023/12/13 03:00:11;;;;;;;5.30;0.80;;;6.70;99.90;;;;;;5049931;28;20574;-74
2023/12/13 03:02:42;;;;;;;2.60;0.57;;;6.80;99.90;;;;;;5050161;28;20086;-80
2023/12/13 03:05:07;;;;;;;2.60;0.50;;;6.80;99.90;;;;;;5055872;28;20032;-71
2023/12/13 03:07:33;;;;;;;5.80;0.55;;;6.80;99.90;;;;;;5068758;28;20055;-70
2023/12/13 03:09:59;;;;;;;4.90;0.50;;;6.80;99.90;;;;;;5066734;28;20035;-71
2023/12/13 03:12:25;;;;;;;3.55;0.50;;;6.80;99.90;;;;;;5067028;28;20024;-71
2023/12/13 03:14:50;;;;;;;4.50;0.60;;;6.80;99.90;;;;;;5060460;28;20044;-71
2023/12/13 03:17:16;;;;;;;4.28;0.50;;;6.90;99.90;;;;;;5063884;28;20088;-75
2023/12/13 03:19:42;;;;;;;1.60;0.32;;;6.80;99.90;;;;;;5063410;28;20413;-79
2023/12/13 03:22:07;;;;;;;4.18;0.80;;;6.80;99.90;;;;;;5051055;28;20506;-71
2023/12/13 03:24:34;;;;;;;2.85;0.80;;;6.80;99.90;;;;;;5049132;28;20033;-73
2023/12/13 03:27:00;;;;;;;2.92;0.68;;;6.70;99.90;;;;;;5057736;28;20631;-72
2023/12/13 03:29:25;;;;;;;4.07;0.60;;;6.70;99.90;;;;;;5066745;28;20029;-73
2023/12/13 03:31:51;;;;;;;2.50;0.52;;;6.70;99.90;;;;;;5061724;28;20071;-71
2023/12/13 03:34:16;;;;;;;4.63;0.70;;;6.60;99.90;;;;;;5048801;28;20037;-73
2023/12/13 03:36:42;;;;;;;2.97;0.50;;;6.60;99.90;;;;;;5052593;28;20043;-79
2023/12/13 03:39:07;;;;;;;2.67;0.60;;;6.60;99.90;;;;;;5060244;28;20032;-70
2023/12/13 03:41:34;;;;;;;2.63;0.98;;;6.70;99.90;;;;;;5067401;28;20493;-70
2023/12/13 03:43:59;;;;;;;4.53;0.60;;;6.70;99.90;;;;;;5059969;28;20025;-72
2023/12/13 03:46:25;;;;;;;3.72;0.50;;;6.80;99.90;;;;;;5062208;28;20120;-70
2023/12/13 03:48:52;;;;;;;3.40;0.60;;;6.90;99.90;;;;;;5067307;28;20052;-72
2023/12/13 03:51:17;;;;;;;5.10;0.55;;;6.90;99.90;;;;;;5059873;28;20025;-70
2023/12/13 03:53:43;;;;;;;2.33;0.50;;;7.00;99.90;;;;;;5065882;28;20033;-80
2023/12/13 03:56:12;;;;;;;6.75;1.17;;;7.00;99.90;;;;;;5057662;28;20032;-72
2023/12/13 03:58:38;;;;;;;6.20;0.60;;;7.00;99.90;;;;;;5065074;28;20060;-70
2023/12/13 04:01:04;;;;;;;2.75;0.60;;;7.00;99.90;;;;;;5058899;28;20029;-70
2023/12/13 04:03:29;;;;;;;3.35;0.60;;;7.10;99.90;;;;;;5051663;28;20039;-73
2023/12/13 04:05:55;;;;;;;1.65;0.60;;;7.10;99.90;;;;;;5059810;28;20489;-72
2023/12/13 04:08:21;;;;;;;4.47;0.70;;;7.10;99.90;;;;;;5064956;28;20060;-70
2023/12/13 04:10:46;;;;;;;5.70;0.60;;;7.10;99.90;;;;;;5059705;28;20035;-75
2023/12/13 04:13:12;;;;;;;3.38;1.20;;;7.00;99.90;;;;;;5048503;28;20025;-71
2023/12/13 04:15:38;;;;;;;2.72;0.77;;;7.00;99.90;;;;;;5053327;28;20029;-70
2023/12/13 04:18:04;;;;;;;2.35;0.60;;;7.00;99.90;;;;;;5056087;28;20802;-70
2023/12/13 04:20:30;;;;;;;7.32;0.50;;;7.00;99.90;;;;;;5062603;28;20032;-72
2023/12/13 04:22:56;;;;;;;2.33;0.40;;;7.10;99.90;;;;;;5069414;28;20783;-70
2023/12/13 04:25:21;;;;;;;3.80;0.50;;;7.00;99.90;;;;;;5061965;28;20065;-73
2023/12/13 04:27:47;;;;;;;4.85;0.50;;;7.10;99.90;;;;;;5066069;28;20059;-71
2023/12/13 04:30:14;;;;;;;5.20;0.45;;;7.10;99.90;;;;;;5065422;28;20077;-70
2023/12/13 04:32:40;;;;;;;3.28;0.57;;;7.10;99.90;;;;;;5070023;28;20454;-73
2023/12/13 04:35:06;;;;;;;1.75;0.38;;;7.10;99.90;;;;;;5070135;28;20086;-72
2023/12/13 04:37:32;;;;;;;3.90;0.50;;;7.10;99.90;;;;;;5066267;28;20041;-71
2023/12/13 04:39:58;;;;;;;2.33;0.95;;;7.10;99.90;;;;;;5070896;28;20020;-72
2023/12/13 04:42:24;;;;;;;4.55;0.57;;;7.10;99.90;;;;;;5071989;28;20429;-70
2023/12/13 04:44:50;;;;;;;2.22;0.63;;;7.10;99.90;;;;;;5070529;28;20035;-73
2023/12/13 04:47:16;;;;;;;3.92;0.80;;;7.10;99.90;;;;;;5068956;28;20109;-72
2023/12/13 04:49:41;;;;;;;2.15;0.60;;;7.00;99.90;;;;;;5060818;28;20033;-66
2023/12/13 04:52:07;;;;;;;4.45;0.73;;;6.90;99.90;;;;;;5059836;28;20397;-71
2023/12/13 04:54:33;;;;;;;1.15;0.47;;;6.90;99.90;;;;;;5044339;28;20838;-71
2023/12/13 04:56:58;;;;;;;5.40;1.00;;;6.90;99.90;;;;;;5072590;28;20040;-74
2023/12/13 04:59:24;;;;;;;3.28;1.00;;;6.80;99.90;;;;;;5058057;28;20050;-70
2023/12/13 05:01:50;;;;;;;4.18;0.75;;;6.80;99.90;;;;;;5065731;28;20098;-71
2023/12/13 05:04:16;;;;;;;6.75;0.90;;;6.80;99.90;;;;;;5057791;28;20512;-73
2023/12/13 05:06:41;;;;;;;3.92;0.90;;;6.80;99.90;;;;;;5063504;28;20066;-73
2023/12/13 05:09:07;;;;;;;8.30;0.80;;;6.80;99.90;;;;;;5064106;28;20522;-74
2023/12/13 05:11:33;;;;;;;3.33;0.85;;;6.80;99.90;;;;;;5070216;28;20036;-74
2023/12/13 05:13:59;;;;;;;2.22;0.57;;;6.80;99.90;;;;;;5066254;28;20023;-72
2023/12/13 05:16:24;;;;;;;1.48;0.60;;;6.70;99.90;;;;;;5056353;28;20041;-71
2023/12/13 05:18:50;;;;;;;2.10;0.57;;;6.80;99.90;;;;;;5065582;28;20127;-75
2023/12/13 05:21:16;;;;;;;4.72;0.60;;;6.80;99.90;;;;;;5079739;28;20036;-73
2023/12/13 05:23:42;;;;;;;3.13;0.63;;;6.80;99.90;;;;;;5069961;28;20033;-74
2023/12/13 05:26:07;;;;;;;2.25;0.40;;;6.90;99.90;;;;;;5070253;28;20013;-74
2023/12/13 05:28:33;;;;;;;1.13;0.40;;;6.90;99.90;;;;;;5069980;28;20153;-72
2023/12/13 05:30:59;;;;;;;4.20;0.98;;;6.90;99.90;;;;;;5068882;28;20459;-73
2023/12/13 05:33:24;;;;;;;1.65;0.82;;;6.90;99.90;;;;;;5069508;28;20032;-73
2023/12/13 05:35:50;;;;;;;3.05;1.42;;;6.80;99.90;;;;;;5059255;28;20044;-75
2023/12/13 05:38:15;;;;;;;5.50;1.30;;;6.80;99.90;;;;;;5051095;28;20673;-71
2023/12/13 05:40:41;;;;;;;4.93;1.55;;;6.70;99.90;;;;;;5068306;28;20036;-74
2023/12/13 05:43:07;;;;;;;6.43;1.42;;;6.60;99.90;;;;;;5069658;28;20039;-73
2023/12/13 05:45:32;;;;;;;5.32;1.58;;;6.60;99.90;;;;;;5053651;28;20037;-72
2023/12/13 05:47:58;;;;;;;6.60;1.40;;;6.60;99.90;;;;;;5057347;28;20308;-73
2023/12/13 05:50:24;;;;;;;5.43;1.00;;;6.60;99.90;;;;;;5063487;28;20027;-72
2023/12/13 05:52:50;;;;;;;3.70;1.25;;;6.50;99.90;;;;;;5058483;28;20017;-75
2023/12/13 05:55:16;;;;;;;5.70;1.20;;;6.50;99.90;;;;;;5060217;28;20036;-72
2023/12/13 05:57:41;;;;;;;7.30;1.17;;;6.40;99.90;;;;;;5048535;28;20045;-71
2023/12/13 06:00:08;;;;;;;3.42;1.17;;;6.40;99.90;;;;;;5062132;28;20052;-72
2023/12/13 06:02:36;;;;;;;3.50;1.20;;;6.40;99.90;;;;;;5051408;28;20528;-69
2023/12/13 06:05:07;;;;;;;7.40;1.25;;;6.50;99.90;;;;;;5055683;28;20500;-71
2023/12/13 06:07:32;;;;;;;2.63;1.08;;;6.50;99.90;;;;;;5069849;28;20433;-72
2023/12/13 06:09:58;;;;;;;3.22;0.98;;;6.50;99.90;;;;;;5059214;28;20029;-73
2023/12/13 06:12:24;;;;;;;5.55;1.25;;;6.50;99.90;;;;;;5052556;28;20485;-71
2023/12/13 06:14:49;;;;;;;6.03;1.13;;;6.50;99.90;;;;;;5063820;28;20033;-76
2023/12/13 06:17:15;;;;;;;3.15;1.25;;;6.50;99.90;;;;;;5067785;28;20080;-72
2023/12/13 06:19:41;;;;;;;2.67;0.85;;;6.50;99.90;;;;;;5058113;28;20032;-72
2023/12/13 06:22:07;;;;;;;4.82;1.30;;;6.50;99.90;;;;;;5062830;28;20131;-73
2023/12/13 06:24:33;;;;;;;4.28;1.30;;;6.50;99.90;;;;;;5060096;28;20474;-70
2023/12/13 06:26:59;;;;;;;3.63;1.10;;;6.60;99.90;;;;;;5066185;28;20105;-73
2023/12/13 06:29:25;;;;;;;4.85;1.45;;;6.60;99.90;;;;;;5058084;28;20562;-73
2023/12/13 06:31:51;;;;;;;3.38;1.30;;;6.60;99.90;;;;;;5056532;28;20033;-80
2023/12/13 06:34:16;;;;;;;5.05;1.85;;;6.60;99.90;;;;;;5063769;28;20371;-73
2023/12/13 06:36:42;;;;;;;5.35;1.40;;;6.70;99.90;;;;;;5065743;28;20443;-73
2023/12/13 06:39:11;;;;;;;10.20;3.53;;;6.70;99.90;;;;;;5064338;28;20021;-72
2023/12/13 06:41:37;;;;;;;8.73;3.40;;;6.60;99.90;;;;;;5067262;28;20113;-73
2023/12/13 06:44:03;;;;;;;8.27;3.42;;;6.60;99.90;;;;;;5061958;28;20024;-71
2023/12/13 06:46:29;;;;;;;7.93;3.58;;;6.70;99.90;;;;;;5069412;28;20082;-73
2023/12/13 06:48:55;;;;;;;7.68;3.45;;;6.60;99.90;;;;;;5065863;28;20057;-74
2023/12/13 06:51:21;;;;;;;6.95;2.90;;;6.60;99.90;;;;;;5053257;28;20037;-76
2023/12/13 06:53:47;;;;;;;4.00;1.80;;;6.60;99.90;;;;;;5056233;28;20034;-75
2023/12/13 06:56:13;;;;;;;7.07;2.08;;;6.50;99.90;;;;;;5074077;28;20042;-74
2023/12/13 06:58:38;;;;;;;6.65;1.90;;;6.50;99.90;;;;;;5050624;28;20136;-74
2023/12/13 07:01:05;;;;;;;9.73;2.42;;;6.50;99.90;;;;;;5067923;28;20104;-70
2023/12/13 07:03:31;;;;;;;4.15;2.00;;;6.50;99.90;;;;;;5059263;28;20071;-73
2023/12/13 07:05:56;;;;;;;10.57;2.40;;;6.50;99.90;;;;;;5053415;28;20443;-73
2023/12/13 07:08:22;;;;;;;6.25;1.83;;;6.50;99.90;;;;;;5056731;28;20037;-74
2023/12/13 07:10:48;;;;;;;4.63;2.28;;;6.50;99.90;;;;;;5067448;28;20056;-71
2023/12/13 07:13:14;;;;;;;13.20;5.15;;;6.50;99.90;;;;;;5067706;28;20052;-72
2023/12/13 07:15:39;;;;;;;13.40;6.78;;;6.50;99.90;;;;;;5064271;28;20074;-76
2023/12/13 07:18:05;;;;;;;10.50;4.93;;;6.40;99.90;;;;;;5048227;28;20490;-72
2023/12/13 07:20:31;;;;;;;11.13;4.85;;;6.40;99.90;;;;;;5051454;28;20045;-72
2023/12/13 07:22:57;;;;;;;13.63;5.30;;;6.50;99.90;;;;;;5049575;28;20108;-73
2023/12/13 07:25:23;;;;;;;9.00;4.72;;;6.50;99.90;;;;;;5056476;28;20068;-72
2023/12/13 07:27:48;;;;;;;9.27;4.00;;;6.50;99.90;;;;;;5048557;28;20061;-71
2023/12/13 07:30:14;;;;;;;9.43;3.75;;;6.50;99.90;;;;;;5054526;28;20263;-70
2023/12/13 07:32:41;;;;;;;11.35;3.63;;;6.50;99.90;;;;;;5068647;28;20060;-72
2023/12/13 07:35:07;;;;;;;7.75;3.20;;;6.50;99.90;;;;;;5058237;28;20032;-72
2023/12/13 07:37:33;;;;;;;8.10;2.30;;;6.50;99.90;;;;;;5058748;28;20056;-70
2023/12/13 07:39:59;;;;;;;5.93;2.67;;;6.60;99.90;;;;;;5050309;28;20060;-75
2023/12/13 07:42:24;;;;;;;6.03;2.22;;;6.60;99.90;;;;;;5069050;28;20029;-72
2023/12/13 07:44:50;;;;;;;5.85;2.10;;;6.60;99.90;;;;;;5065541;28;20115;-73
2023/12/13 07:47:15;;;;;;;6.07;2.35;;;6.70;99.90;;;;;;5057203;28;20032;-73
2023/12/13 07:49:41;;;;;;;7.05;2.40;;;6.70;99.90;;;;;;5058217;28;20107;-72
2023/12/13 07:52:07;;;;;;;6.10;2.65;;;6.80;99.90;;;;;;5058157;28;20541;-72
2023/12/13 07:54:33;;;;;;;6.38;3.10;;;6.80;99.90;;;;;;5054223;28;20040;-72
2023/12/13 07:56:59;;;;;;;13.07;4.10;;;6.90;99.90;;;;;;5060257;28;20036;-71
2023/12/13 07:59:24;;;;;;;14.88;6.80;;;6.90;99.90;;;;;;5065363;28;20052;-69
2023/12/13 08:01:50;;;;;;;11.30;5.53;;;6.90;99.90;;;;;;5060789;28;20047;-73
2023/12/13 08:04:16;;;;;;;15.80;6.47;;;7.00;99.90;;;;;;5048962;28;20674;-73
2023/12/13 08:06:42;;;;;;;10.50;3.58;;;7.00;99.90;;;;;;5066005;28;20034;-72
2023/12/13 08:09:09;;;;;;;7.65;3.05;;;7.00;99.90;;;;;;5049166;28;20029;-70
2023/12/13 08:11:35;;;;;;;8.85;2.80;;;6.90;99.90;;;;;;5055734;28;20143;-70
2023/12/13 08:14:01;;;;;;;5.00;2.40;;;7.00;99.90;;;;;;5063647;28;20032;-72
2023/12/13 08:16:26;;;;;;;7.50;2.40;;;6.90;99.90;;;;;;5060215;28;20082;-74
2023/12/13 08:18:54;;;;;;;7.07;2.67;;;6.90;99.90;;;;;;5056241;28;20497;-72
2023/12/13 08:21:26;;;;;;;8.02;2.92;;;6.90;99.90;;;;;;5067643;28;20085;-70
2023/12/13 08:23:52;;;;;;;5.72;2.05;;;6.90;99.90;;;;;;5054943;28;20029;-71
2023/12/13 08:26:17;;;;;;;9.98;2.40;;;6.90;99.90;;;;;;5066967;28;20024;-73
2023/12/13 08:28:43;;;;;;;4.70;2.20;;;6.90;99.90;;;;;;5065579;28;20032;-69
2023/12/13 08:31:12;;;;;;;6.82;2.30;;;7.00;99.90;;;;;;5056391;28;20097;-73
2023/12/13 08:33:41;;;;;;;41.00;6.45;;;7.00;99.90;;;;;;5066698;28;20115;-73
2023/12/13 08:36:11;;;;;;;11.77;5.32;;;7.00;99.90;;;;;;5067415;28;20036;-72
2023/12/13 08:38:38;;;;;;;4.37;2.43;;;7.00;99.90;;;;;;5068223;28;20119;-72
2023/12/13 08:41:06;;;;;;;11.88;3.08;;;7.00;99.90;;;;;;5053312;28;20025;-71
2023/12/13 08:43:32;;;;;;;5.47;2.20;;;7.00;99.90;;;;;;5048117;28;20029;-73
2023/12/13 08:45:58;;;;;;;14.93;7.20;;;7.00;99.90;;;;;;5062653;28;20033;-76
2023/12/13 08:48:24;;;;;;;11.85;4.63;;;7.00;99.90;;;;;;5059780;28;20033;-70
2023/12/13 08:50:49;;;;;;;10.27;3.78;;;7.00;99.90;;;;;;5048109;28;20096;-75
2023/12/13 08:53:15;;;;;;;7.85;4.05;;;7.10;99.90;;;;;;5047094;28;20033;-72
2023/12/13 08:55:41;;;;;;;11.13;4.00;;;7.10;99.90;;;;;;5056101;28;20036;-73
2023/12/13 08:58:06;;;;;;;7.43;3.00;;;7.10;99.90;;;;;;5066817;28;20052;-71
2023/12/13 09:00:32;;;;;;;8.70;2.85;;;7.10;99.90;;;;;;5066237;28;20036;-71
2023/12/13 09:02:57;;;;;;;8.35;2.75;;;7.00;99.90;;;;;;5064739;28;20040;-76
2023/12/13 09:05:23;;;;;;;6.10;2.03;;;7.00;99.90;;;;;;5067466;28;20516;-70
2023/12/13 09:07:49;;;;;;;5.65;2.00;;;7.10;99.90;;;;;;5062620;28;20033;-72
2023/12/13 09:10:14;;;;;;;13.15;4.35;;;7.20;99.90;;;;;;5051223;28;20375;-70
2023/12/13 09:12:40;;;;;;;5.25;2.03;;;7.10;99.90;;;;;;5051573;28;20036;-70
2023/12/13 09:15:07;;;;;;;6.30;2.20;;;7.10;99.90;;;;;;5050903;28;20800;-73
2023/12/13 09:17:36;;;;;;;6.38;1.95;;;7.10;99.90;;;;;;5051033;28;20447;-73
2023/12/13 09:20:01;;;;;;;13.02;5.68;;;7.20;99.90;;;;;;5055122;28;20475;-79
2023/12/13 09:22:27;;;;;;;13.80;5.38;;;7.20;99.90;;;;;;5053380;28;20104;-70
2023/12/13 09:24:53;;;;;;;32.58;9.20;;;7.30;99.90;;;;;;5071169;28;20450;-71
2023/12/13 09:27:19;;;;;;;14.15;7.57;;;7.30;99.90;;;;;;5069824;28;20483;-74
2023/12/13 09:29:45;;;;;;;235.48;16.90;;;7.30;99.90;;;;;;5068938;28;20041;-72
2023/12/13 09:32:11;;;;;;;36.70;12.90;;;7.30;99.90;;;;;;5070335;28;20043;-74
2023/12/13 09:34:37;;;;;;;60.17;12.23;;;7.20;99.90;;;;;;5069423;28;20037;-72
2023/12/13 09:37:03;;;;;;;37.20;11.30;;;7.10;99.90;;;;;;5069814;28;20119;-81
2023/12/13 09:39:28;;;;;;;24.05;10.82;;;7.10;99.90;;;;;;5070314;28;20454;-72
2023/12/13 09:42:00;;;;;;;21.02;9.35;;;7.10;99.90;;;;;;5070831;28;20032;-69
2023/12/13 09:44:26;;;;;;;16.63;7.32;;;7.20;99.90;;;;;;5070704;28;20803;-72
2023/12/13 09:46:53;;;;;;;21.75;8.75;;;7.10;99.90;;;;;;5070592;28;20029;-72
2023/12/13 09:49:23;;;;;;;16.90;7.85;;;7.10;99.90;;;;;;5070013;28;20531;-71
2023/12/13 09:51:50;;;;;;;20.23;8.90;;;7.20;99.90;;;;;;5070891;28;20021;-74
2023/12/13 09:54:16;;;;;;;23.80;9.32;;;7.20;99.90;;;;;;5069635;28;20040;-72
2023/12/13 09:56:42;;;;;;;24.23;10.52;;;7.20;99.90;;;;;;5053043;28;20041;-72
2023/12/13 09:59:08;;;;;;;19.50;8.73;;;7.30;99.90;;;;;;5052002;28;20053;-70
2023/12/13 10:01:33;;;;;;;15.45;6.47;;;7.30;99.90;;;;;;5050586;28;20026;-70
2023/12/13 10:04:00;;;;;;;10.27;4.80;;;7.30;99.90;;;;;;5049177;28;20082;-71
2023/12/13 10:06:26;;;;;;;9.15;3.53;;;7.30;99.90;;;;;;5050030;28;20078;-71
2023/12/13 10:08:56;;;;;;;8.30;4.20;;;7.30;99.90;;;;;;5051768;28;20037;-74
2023/12/13 10:11:23;;;;;;;13.82;5.30;;;7.30;99.90;;;;;;5068177;28;20016;-70
2023/12/13 10:13:48;;;;;;;14.00;5.20;;;7.30;99.90;;;;;;5069054;28;20025;-72
2023/12/13 10:16:15;;;;;;;12.13;3.85;;;7.20;99.90;;;;;;5052616;28;20040;-70
2023/12/13 10:18:41;;;;;;;6.93;3.03;;;7.30;99.90;;;;;;5055941;28;20486;-72
2023/12/13 10:21:10;;;;;;;6.68;2.40;;;7.30;99.90;;;;;;5069108;28;20043;-73
2023/12/13 10:23:36;;;;;;;5.70;2.38;;;7.30;99.90;;;;;;5070103;28;20123;-71
2023/12/13 10:26:03;;;;;;;9.32;2.53;;;7.40;99.90;;;;;;5069825;28;20107;-77
2023/12/13 10:28:28;;;;;;;7.03;2.28;;;7.40;99.90;;;;;;5068199;28;20024;-73
2023/12/13 10:30:54;;;;;;;8.35;2.20;;;7.40;99.90;;;;;;5064315;28;20472;-70
2023/12/13 10:33:20;;;;;;;6.63;2.05;;;7.40;99.90;;;;;;5049495;28;20060;-75
2023/12/13 10:35:49;;;;;;;4.72;1.50;;;7.40;99.90;;;;;;5064332;28;20392;-72
2023/12/13 10:38:15;;;;;;;7.95;1.65;;;7.50;99.90;;;;;;5064885;28;20042;-68
2023/12/13 10:40:42;;;;;;;4.45;1.67;;;7.50;99.90;;;;;;5067645;28;20102;-71
2023/12/13 10:43:10;;;;;;;7.28;1.95;;;7.50;99.90;;;;;;5064908;28;20022;-76
2023/12/13 10:45:59;;;;;;;5.75;1.25;;;7.60;99.90;;;;;;5054010;28;20091;-74
2023/12/13 10:48:32;;;;;;;4.05;1.40;;;7.60;99.90;;;;;;5056603;28;20265;-74
2023/12/13 10:51:00;;;;;;;8.18;1.73;;;7.60;99.90;;;;;;5061175;28;20028;-71
2023/12/13 10:53:28;;;;;;;6.28;2.08;;;7.60;99.90;;;;;;5053960;28;20032;-69
2023/12/13 10:55:55;;;;;;;7.80;2.05;;;7.70;99.90;;;;;;5068094;28;20033;-71
2023/12/13 10:58:21;;;;;;;4.20;2.00;;;7.70;99.90;;;;;;5067539;28;20036;-74
2023/12/13 11:00:48;;;;;;;3.20;1.73;;;7.80;99.90;;;;;;5067735;28;20836;-72
2023/12/13 11:03:45;;;;;;;6.05;1.60;;;7.80;99.90;;;;;;5058745;28;20039;-70
2023/12/13 11:06:15;;;;;;;3.90;1.70;;;7.80;99.90;;;;;;5061299;28;20036;-73
2023/12/13 11:08:43;;;;;;;7.15;1.45;;;7.80;99.90;;;;;;5059158;28;20116;-70
2023/12/13 11:11:11;;;;;;;4.15;1.13;;;7.80;99.90;;;;;;5063364;28;20067;-75
2023/12/13 11:13:50;;;;;;;4.43;1.13;;;7.80;99.90;;;;;;5064905;28;20059;-72
2023/12/13 11:16:19;;;;;;;4.53;1.25;;;7.80;99.90;;;;;;5057949;28;20028;-72
2023/12/13 11:18:46;;;;;;;3.78;1.00;;;7.80;99.90;;;;;;5050902;28;20542;-68
2023/12/13 11:21:25;;;;;;;3.95;0.90;;;7.80;99.90;;;;;;5065330;28;20115;-71
2023/12/13 11:23:52;;;;;;;2.55;0.93;;;7.80;99.90;;;;;;5068581;28;20044;-69
2023/12/13 11:26:20;;;;;;;4.10;1.60;;;7.80;99.90;;;;;;5056644;28;20059;-69
2023/12/13 11:28:54;;;;;;;5.93;1.85;;;7.80;99.90;;;;;;5079121;28;20040;-70
2023/12/13 11:31:24;;;;;;;3.65;1.75;;;7.80;99.90;;;;;;5058388;28;20021;-71
2023/12/13 11:33:53;;;;;;;7.25;2.22;;;7.80;99.90;;;;;;5068482;28;20623;-72
2023/12/13 11:36:24;;;;;;;5.47;1.77;;;7.80;99.90;;;;;;5050575;28;20044;-71
2023/12/13 11:38:50;;;;;;;;;;;7.90;99.90;;;;;;5049234;28;20025;-72
2023/12/13 11:41:17;;;;;;;5.70;1.92;;;7.90;99.90;;;;;;5062778;28;19962;-71
2023/12/13 11:43:43;;;;;;;6.25;2.10;;;7.90;99.90;;;;;;5068534;28;20048;-70
2023/12/13 11:46:09;;;;;;;9.25;2.45;;;8.00;99.90;;;;;;5065566;28;20112;-77
2023/12/13 11:48:36;;;;;;;4.97;2.03;;;8.10;99.90;;;;;;5051404;28;20123;-73
2023/12/13 11:51:02;;;;;;;6.13;1.92;;;8.10;99.90;;;;;;5061226;28;20052;-78
2023/12/13 11:53:27;;;;;;;4.75;2.33;;;8.10;99.90;;;;;;5067762;28;20209;-71
2023/12/13 11:55:53;;;;;;;7.10;2.40;;;8.10;99.90;;;;;;5067350;28;20032;-70
2023/12/13 11:58:19;;;;;;;5.57;1.77;;;8.20;99.90;;;;;;5067643;28;20044;-74
2023/12/13 12:00:44;;;;;;;5.80;2.15;;;8.30;99.90;;;;;;5068029;28;20455;-71
2023/12/13 12:03:10;;;;;;;7.75;1.90;;;8.40;99.90;;;;;;5068051;28;20032;-75
2023/12/13 12:05:36;;;;;;;3.03;1.48;;;8.50;99.90;;;;;;5066655;28;20033;-74
2023/12/13 12:08:06;;;;;;;6.03;2.42;;;8.50;99.90;;;;;;5067095;28;20039;-75
2023/12/13 12:10:33;;;;;;;8.73;2.13;;;8.50;99.90;;;;;;5067593;28;20032;-75
2023/12/13 12:13:00;;;;;;;6.03;1.95;;;8.50;99.90;;;;;;5058853;28;20041;-73
2023/12/13 12:15:26;;;;;;;6.20;2.08;;;8.50;99.90;;;;;;5063568;28;20032;-72
2023/12/13 12:17:52;;;;;;;4.00;1.40;;;8.50;99.90;;;;;;5062989;28;20088;-74
2023/12/13 12:20:17;;;;;;;6.40;1.95;;;8.50;99.90;;;;;;5058328;28;20039;-71
2023/12/13 12:22:46;;;;;;;5.68;2.00;;;8.40;99.90;;;;;;5065392;28;20035;-71
2023/12/13 12:25:12;;;;;;;6.30;2.08;;;8.40;99.90;;;;;;5063626;28;20036;-78
2023/12/13 12:27:46;;;;;;;7.38;2.15;;;8.50;99.90;;;;;;5049223;28;20044;-73
2023/12/13 12:30:12;;;;;;;9.00;2.50;;;8.50;99.90;;;;;;5057421;28;20105;-78
2023/12/13 12:32:37;;;;;;;5.18;2.08;;;8.70;99.90;;;;;;5063413;28;20025;-71
2023/12/13 12:35:05;;;;;;;10.23;2.60;;;8.70;99.90;;;;;;5067702;28;20466;-72
2023/12/13 12:37:30;;;;;;;3.33;1.67;;;8.50;99.90;;;;;;5059848;28;20621;-72
2023/12/13 12:39:56;;;;;;;5.63;1.85;;;8.40;99.90;;;;;;5049632;28;20047;-74
2023/12/13 12:42:22;;;;;;;6.63;2.00;;;8.40;99.90;;;;;;5049762;28;20052;-73
2023/12/13 12:44:48;;;;;;;6.63;2.28;;;8.40;99.90;;;;;;5051535;28;20028;-70
2023/12/13 12:47:13;;;;;;;6.25;2.00;;;8.40;99.90;;;;;;5052721;28;20028;-78
2023/12/13 12:49:39;;;;;;;5.60;2.30;;;8.50;99.90;;;;;;5061792;28;20035;-72
2023/12/13 12:52:05;;;;;;;4.40;2.05;;;8.60;99.90;;;;;;5072440;28;20374;-66